sensor_id;sensor_type;location;lat;lon;timestamp;P1;durP1;ratioP1;P2;durP2;ratioP2
41514;SDS011;27247;48.020;16.720;2023-07-29T00:01:25;6.67;;;3.90;;
41514;SDS011;27247;48.020;16.720;2023-07-29T00:05:36;3.97;;;3.13;;
41514;SDS011;27247;48.020;16.720;2023-07-29T00:09:47;5.80;;;4.10;;
41514;SDS011;27247;48.020;16.720;2023-07-29T00:13:57;6.83;;;3.47;;
41514;SDS011;27247;48.020;16.720;2023-07-29T00:18:08;5.75;;;3.03;;
41514;SDS011;27247;48.020;16.720;2023-07-29T00:22:18;5.40;;;3.78;;
41514;SDS011;27247;48.020;16.720;2023-07-29T00:26:28;6.03;;;3.60;;
41514;SDS011;27247;48.020;16.720;2023-07-29T00:30:39;5.13;;;3.05;;
41514;SDS011;27247;48.020;16.720;2023-07-29T00:34:49;8.70;;;3.58;;
41514;SDS011;27247;48.020;16.720;2023-07-29T00:39:01;4.22;;;3.20;;
41514;SDS011;27247;48.020;16.720;2023-07-29T00:43:11;3.70;;;3.00;;
41514;SDS011;27247;48.020;16.720;2023-07-29T00:47:21;8.03;;;3.50;;
41514;SDS011;27247;48.020;16.720;2023-07-29T00:51:33;7.22;;;4.07;;
41514;SDS011;27247;48.020;16.720;2023-07-29T00:55:43;4.50;;;3.50;;
41514;SDS011;27247;48.020;16.720;2023-07-29T00:59:54;5.63;;;3.28;;
41514;SDS011;27247;48.020;16.720;2023-07-29T01:04:04;6.07;;;3.57;;
41514;SDS011;27247;48.020;16.720;2023-07-29T01:08:30;5.07;;;4.00;;
41514;SDS011;27247;48.020;16.720;2023-07-29T01:12:48;4.88;;;3.88;;
41514;SDS011;27247;48.020;16.720;2023-07-29T01:17:05;8.65;;;4.30;;
41514;SDS011;27247;48.020;16.720;2023-07-29T01:21:18;9.85;;;4.18;;
41514;SDS011;27247;48.020;16.720;2023-07-29T01:25:30;7.25;;;3.83;;
41514;SDS011;27247;48.020;16.720;2023-07-29T01:29:40;5.10;;;3.60;;
41514;SDS011;27247;48.020;16.720;2023-07-29T01:33:58;6.25;;;4.55;;
41514;SDS011;27247;48.020;16.720;2023-07-29T01:38:20;4.38;;;3.42;;
41514;SDS011;27247;48.020;16.720;2023-07-29T01:42:41;6.32;;;4.03;;
41514;SDS011;27247;48.020;16.720;2023-07-29T01:46:52;4.70;;;3.40;;
41514;SDS011;27247;48.020;16.720;2023-07-29T01:51:03;8.23;;;4.97;;
41514;SDS011;27247;48.020;16.720;2023-07-29T01:55:13;5.45;;;4.05;;
41514;SDS011;27247;48.020;16.720;2023-07-29T01:59:24;6.32;;;3.72;;
41514;SDS011;27247;48.020;16.720;2023-07-29T02:03:34;5.35;;;3.55;;
41514;SDS011;27247;48.020;16.720;2023-07-29T02:07:44;6.07;;;3.33;;
41514;SDS011;27247;48.020;16.720;2023-07-29T02:11:55;4.20;;;3.33;;
41514;SDS011;27247;48.020;16.720;2023-07-29T02:16:05;5.67;;;3.97;;
41514;SDS011;27247;48.020;16.720;2023-07-29T02:20:15;6.73;;;3.33;;
41514;SDS011;27247;48.020;16.720;2023-07-29T02:24:26;5.53;;;3.67;;
41514;SDS011;27247;48.020;16.720;2023-07-29T02:28:36;7.88;;;4.53;;
41514;SDS011;27247;48.020;16.720;2023-07-29T02:32:46;5.50;;;3.37;;
41514;SDS011;27247;48.020;16.720;2023-07-29T02:36:57;6.13;;;3.60;;
41514;SDS011;27247;48.020;16.720;2023-07-29T02:41:10;4.97;;;3.92;;
41514;SDS011;27247;48.020;16.720;2023-07-29T02:45:22;5.47;;;4.50;;
41514;SDS011;27247;48.020;16.720;2023-07-29T02:49:33;5.00;;;3.77;;
41514;SDS011;27247;48.020;16.720;2023-07-29T02:53:43;8.00;;;4.00;;
41514;SDS011;27247;48.020;16.720;2023-07-29T02:57:53;6.20;;;3.53;;
41514;SDS011;27247;48.020;16.720;2023-07-29T03:02:03;5.97;;;3.87;;
41514;SDS011;27247;48.020;16.720;2023-07-29T03:06:14;5.32;;;3.83;;
41514;SDS011;27247;48.020;16.720;2023-07-29T03:10:25;5.90;;;3.60;;
41514;SDS011;27247;48.020;16.720;2023-07-29T03:14:35;11.02;;;3.80;;
41514;SDS011;27247;48.020;16.720;2023-07-29T03:18:46;6.30;;;3.85;;
41514;SDS011;27247;48.020;16.720;2023-07-29T03:22:58;7.03;;;4.03;;
41514;SDS011;27247;48.020;16.720;2023-07-29T03:27:08;5.90;;;3.50;;
41514;SDS011;27247;48.020;16.720;2023-07-29T03:31:19;7.03;;;3.70;;
41514;SDS011;27247;48.020;16.720;2023-07-29T03:35:30;4.15;;;3.22;;
41514;SDS011;27247;48.020;16.720;2023-07-29T03:39:40;6.37;;;3.37;;
41514;SDS011;27247;48.020;16.720;2023-07-29T03:43:50;5.40;;;3.73;;
41514;SDS011;27247;48.020;16.720;2023-07-29T03:48:01;4.00;;;3.60;;
41514;SDS011;27247;48.020;16.720;2023-07-29T03:52:12;6.65;;;3.47;;
41514;SDS011;27247;48.020;16.720;2023-07-29T03:56:23;6.43;;;3.20;;
41514;SDS011;27247;48.020;16.720;2023-07-29T04:00:33;6.17;;;3.53;;
41514;SDS011;27247;48.020;16.720;2023-07-29T04:04:43;4.50;;;3.85;;
41514;SDS011;27247;48.020;16.720;2023-07-29T04:08:57;9.13;;;4.13;;
41514;SDS011;27247;48.020;16.720;2023-07-29T04:13:08;5.97;;;3.22;;
41514;SDS011;27247;48.020;16.720;2023-07-29T04:17:18;4.77;;;3.53;;
41514;SDS011;27247;48.020;16.720;2023-07-29T04:21:29;4.43;;;3.40;;
41514;SDS011;27247;48.020;16.720;2023-07-29T04:25:39;6.43;;;3.70;;
41514;SDS011;27247;48.020;16.720;2023-07-29T04:29:49;4.63;;;3.33;;
41514;SDS011;27247;48.020;16.720;2023-07-29T04:34:00;6.43;;;3.90;;
41514;SDS011;27247;48.020;16.720;2023-07-29T04:38:10;4.03;;;3.17;;
41514;SDS011;27247;48.020;16.720;2023-07-29T04:42:20;3.83;;;3.03;;
41514;SDS011;27247;48.020;16.720;2023-07-29T04:46:30;4.87;;;3.30;;
41514;SDS011;27247;48.020;16.720;2023-07-29T04:50:41;5.95;;;3.47;;
41514;SDS011;27247;48.020;16.720;2023-07-29T04:54:51;6.13;;;3.97;;
41514;SDS011;27247;48.020;16.720;2023-07-29T04:59:02;5.18;;;3.53;;
41514;SDS011;27247;48.020;16.720;2023-07-29T05:03:12;5.28;;;3.72;;
41514;SDS011;27247;48.020;16.720;2023-07-29T05:07:22;6.07;;;4.72;;
41514;SDS011;27247;48.020;16.720;2023-07-29T05:11:32;6.63;;;4.13;;
41514;SDS011;27247;48.020;16.720;2023-07-29T05:15:43;7.43;;;4.40;;
41514;SDS011;27247;48.020;16.720;2023-07-29T05:19:53;6.32;;;4.53;;
41514;SDS011;27247;48.020;16.720;2023-07-29T05:24:04;8.45;;;4.25;;
41514;SDS011;27247;48.020;16.720;2023-07-29T05:28:14;6.40;;;4.10;;
41514;SDS011;27247;48.020;16.720;2023-07-29T05:32:25;7.28;;;4.25;;
41514;SDS011;27247;48.020;16.720;2023-07-29T05:36:35;8.20;;;4.38;;
41514;SDS011;27247;48.020;16.720;2023-07-29T05:40:47;6.63;;;4.50;;
41514;SDS011;27247;48.020;16.720;2023-07-29T05:44:58;5.57;;;4.20;;
41514;SDS011;27247;48.020;16.720;2023-07-29T05:49:08;5.88;;;4.22;;
41514;SDS011;27247;48.020;16.720;2023-07-29T05:53:19;5.47;;;4.03;;
41514;SDS011;27247;48.020;16.720;2023-07-29T05:57:29;9.18;;;4.72;;
41514;SDS011;27247;48.020;16.720;2023-07-29T06:01:39;6.13;;;3.60;;
41514;SDS011;27247;48.020;16.720;2023-07-29T06:05:50;8.50;;;3.65;;
41514;SDS011;27247;48.020;16.720;2023-07-29T06:10:00;4.10;;;2.60;;
41514;SDS011;27247;48.020;16.720;2023-07-29T06:14:11;2.17;;;1.80;;
41514;SDS011;27247;48.020;16.720;2023-07-29T06:18:21;4.60;;;2.80;;
41514;SDS011;27247;48.020;16.720;2023-07-29T06:22:31;2.83;;;2.10;;
41514;SDS011;27247;48.020;16.720;2023-07-29T06:26:42;2.80;;;1.80;;
41514;SDS011;27247;48.020;16.720;2023-07-29T06:30:52;1.90;;;1.70;;
41514;SDS011;27247;48.020;16.720;2023-07-29T06:35:03;3.65;;;1.90;;
41514;SDS011;27247;48.020;16.720;2023-07-29T06:39:13;2.55;;;2.03;;
41514;SDS011;27247;48.020;16.720;2023-07-29T06:43:23;5.20;;;1.80;;
41514;SDS011;27247;48.020;16.720;2023-07-29T06:47:34;3.57;;;1.70;;
41514;SDS011;27247;48.020;16.720;2023-07-29T06:51:44;4.37;;;2.00;;
41514;SDS011;27247;48.020;16.720;2023-07-29T06:55:54;2.80;;;1.80;;
41514;SDS011;27247;48.020;16.720;2023-07-29T07:00:05;3.42;;;1.77;;
41514;SDS011;27247;48.020;16.720;2023-07-29T07:04:16;3.88;;;2.00;;
41514;SDS011;27247;48.020;16.720;2023-07-29T07:08:26;6.00;;;2.00;;
41514;SDS011;27247;48.020;16.720;2023-07-29T07:12:36;4.23;;;2.20;;
41514;SDS011;27247;48.020;16.720;2023-07-29T07:16:47;2.37;;;1.60;;
41514;SDS011;27247;48.020;16.720;2023-07-29T07:20:57;2.87;;;2.10;;
41514;SDS011;27247;48.020;16.720;2023-07-29T07:25:07;3.13;;;2.00;;
41514;SDS011;27247;48.020;16.720;2023-07-29T07:29:18;5.07;;;1.63;;
41514;SDS011;27247;48.020;16.720;2023-07-29T07:33:28;4.00;;;1.60;;
41514;SDS011;27247;48.020;16.720;2023-07-29T07:37:39;2.37;;;1.83;;
41514;SDS011;27247;48.020;16.720;2023-07-29T07:41:49;2.38;;;2.13;;
41514;SDS011;27247;48.020;16.720;2023-07-29T07:46:00;2.50;;;1.30;;
41514;SDS011;27247;48.020;16.720;2023-07-29T07:50:11;3.17;;;1.50;;
41514;SDS011;27247;48.020;16.720;2023-07-29T07:54:21;3.05;;;2.00;;
41514;SDS011;27247;48.020;16.720;2023-07-29T07:58:32;3.30;;;2.10;;
41514;SDS011;27247;48.020;16.720;2023-07-29T08:02:43;1.80;;;1.65;;
41514;SDS011;27247;48.020;16.720;2023-07-29T08:06:54;1.80;;;1.50;;
41514;SDS011;27247;48.020;16.720;2023-07-29T08:11:04;5.43;;;2.00;;
41514;SDS011;27247;48.020;16.720;2023-07-29T08:15:15;2.70;;;2.05;;
41514;SDS011;27247;48.020;16.720;2023-07-29T08:19:25;1.92;;;1.67;;
41514;SDS011;27247;48.020;16.720;2023-07-29T08:23:36;2.72;;;2.13;;
41514;SDS011;27247;48.020;16.720;2023-07-29T08:27:47;1.83;;;1.53;;
41514;SDS011;27247;48.020;16.720;2023-07-29T08:31:57;3.67;;;2.00;;
41514;SDS011;27247;48.020;16.720;2023-07-29T08:36:07;2.37;;;2.17;;
41514;SDS011;27247;48.020;16.720;2023-07-29T08:40:18;2.50;;;2.07;;
41514;SDS011;27247;48.020;16.720;2023-07-29T08:44:43;2.92;;;2.10;;
41514;SDS011;27247;48.020;16.720;2023-07-29T08:48:54;2.83;;;2.22;;
41514;SDS011;27247;48.020;16.720;2023-07-29T08:53:05;4.03;;;1.88;;
41514;SDS011;27247;48.020;16.720;2023-07-29T08:57:16;3.35;;;2.17;;
41514;SDS011;27247;48.020;16.720;2023-07-29T09:01:26;5.40;;;2.58;;
41514;SDS011;27247;48.020;16.720;2023-07-29T09:05:37;3.00;;;2.38;;
41514;SDS011;27247;48.020;16.720;2023-07-29T09:09:48;2.90;;;2.33;;
41514;SDS011;27247;48.020;16.720;2023-07-29T09:13:58;5.70;;;2.70;;
41514;SDS011;27247;48.020;16.720;2023-07-29T09:18:14;3.85;;;2.50;;
41514;SDS011;27247;48.020;16.720;2023-07-29T09:22:26;3.35;;;2.67;;
41514;SDS011;27247;48.020;16.720;2023-07-29T09:26:37;3.92;;;2.50;;
41514;SDS011;27247;48.020;16.720;2023-07-29T09:30:48;5.00;;;2.20;;
41514;SDS011;27247;48.020;16.720;2023-07-29T09:34:58;2.95;;;2.70;;
41514;SDS011;27247;48.020;16.720;2023-07-29T09:39:12;3.67;;;2.77;;
41514;SDS011;27247;48.020;16.720;2023-07-29T09:43:26;4.22;;;2.78;;
41514;SDS011;27247;48.020;16.720;2023-07-29T09:47:40;2.58;;;2.20;;
41514;SDS011;27247;48.020;16.720;2023-07-29T09:51:50;4.73;;;2.90;;
41514;SDS011;27247;48.020;16.720;2023-07-29T09:56:00;2.60;;;2.30;;
41514;SDS011;27247;48.020;16.720;2023-07-29T10:00:11;3.78;;;2.90;;
41514;SDS011;27247;48.020;16.720;2023-07-29T10:04:22;4.20;;;3.20;;
41514;SDS011;27247;48.020;16.720;2023-07-29T10:08:33;4.30;;;3.65;;
41514;SDS011;27247;48.020;16.720;2023-07-29T10:12:48;4.95;;;3.10;;
41514;SDS011;27247;48.020;16.720;2023-07-29T10:17:00;3.65;;;3.33;;
41514;SDS011;27247;48.020;16.720;2023-07-29T10:21:11;3.85;;;3.03;;
41514;SDS011;27247;48.020;16.720;2023-07-29T10:25:22;5.30;;;3.58;;
41514;SDS011;27247;48.020;16.720;2023-07-29T10:29:37;4.57;;;3.45;;
41514;SDS011;27247;48.020;16.720;2023-07-29T10:33:51;3.67;;;2.97;;
41514;SDS011;27247;48.020;16.720;2023-07-29T10:38:02;4.55;;;3.03;;
41514;SDS011;27247;48.020;16.720;2023-07-29T10:42:13;5.47;;;2.90;;
41514;SDS011;27247;48.020;16.720;2023-07-29T10:46:23;5.77;;;3.00;;
41514;SDS011;27247;48.020;16.720;2023-07-29T10:50:34;5.67;;;3.30;;
41514;SDS011;27247;48.020;16.720;2023-07-29T10:54:46;7.00;;;3.60;;
41514;SDS011;27247;48.020;16.720;2023-07-29T10:58:59;4.50;;;3.25;;
41514;SDS011;27247;48.020;16.720;2023-07-29T11:03:13;3.95;;;3.20;;
41514;SDS011;27247;48.020;16.720;2023-07-29T11:07:26;2.97;;;2.67;;
41514;SDS011;27247;48.020;16.720;2023-07-29T11:11:38;5.05;;;2.90;;
41514;SDS011;27247;48.020;16.720;2023-07-29T11:15:49;4.57;;;3.33;;
41514;SDS011;27247;48.020;16.720;2023-07-29T11:20:01;3.45;;;2.80;;
41514;SDS011;27247;48.020;16.720;2023-07-29T11:24:16;6.88;;;3.20;;
41514;SDS011;27247;48.020;16.720;2023-07-29T11:28:28;3.17;;;2.78;;
41514;SDS011;27247;48.020;16.720;2023-07-29T11:32:40;3.90;;;3.33;;
41514;SDS011;27247;48.020;16.720;2023-07-29T11:36:51;6.13;;;3.35;;
41514;SDS011;27247;48.020;16.720;2023-07-29T11:41:01;3.03;;;2.73;;
41514;SDS011;27247;48.020;16.720;2023-07-29T11:45:16;5.72;;;3.42;;
41514;SDS011;27247;48.020;16.720;2023-07-29T11:49:26;4.05;;;3.13;;
41514;SDS011;27247;48.020;16.720;2023-07-29T11:53:37;6.35;;;3.53;;
41514;SDS011;27247;48.020;16.720;2023-07-29T11:57:48;3.90;;;3.00;;
41514;SDS011;27247;48.020;16.720;2023-07-29T12:02:02;4.15;;;3.13;;
41514;SDS011;27247;48.020;16.720;2023-07-29T12:06:18;3.63;;;2.90;;
41514;SDS011;27247;48.020;16.720;2023-07-29T12:10:29;3.83;;;3.00;;
41514;SDS011;27247;48.020;16.720;2023-07-29T12:14:42;5.55;;;3.08;;
41514;SDS011;27247;48.020;16.720;2023-07-29T12:18:59;3.72;;;3.33;;
41514;SDS011;27247;48.020;16.720;2023-07-29T12:23:10;4.13;;;3.40;;
41514;SDS011;27247;48.020;16.720;2023-07-29T12:27:21;4.63;;;2.97;;
41514;SDS011;27247;48.020;16.720;2023-07-29T12:31:32;3.28;;;2.85;;
41514;SDS011;27247;48.020;16.720;2023-07-29T12:35:43;4.78;;;3.20;;
41514;SDS011;27247;48.020;16.720;2023-07-29T12:39:55;4.05;;;2.72;;
41514;SDS011;27247;48.020;16.720;2023-07-29T12:44:05;4.10;;;2.72;;
41514;SDS011;27247;48.020;16.720;2023-07-29T12:48:16;3.33;;;2.63;;
41514;SDS011;27247;48.020;16.720;2023-07-29T12:52:26;4.93;;;3.42;;
41514;SDS011;27247;48.020;16.720;2023-07-29T12:56:36;3.17;;;2.80;;
41514;SDS011;27247;48.020;16.720;2023-07-29T13:00:47;4.38;;;3.42;;
41514;SDS011;27247;48.020;16.720;2023-07-29T13:04:58;7.93;;;3.42;;
41514;SDS011;27247;48.020;16.720;2023-07-29T13:09:08;5.90;;;3.23;;
41514;SDS011;27247;48.020;16.720;2023-07-29T13:13:18;5.40;;;3.55;;
41514;SDS011;27247;48.020;16.720;2023-07-29T13:17:31;4.60;;;2.50;;
41514;SDS011;27247;48.020;16.720;2023-07-29T13:21:41;6.15;;;1.60;;
41514;SDS011;27247;48.020;16.720;2023-07-29T13:25:51;3.72;;;1.90;;
41514;SDS011;27247;48.020;16.720;2023-07-29T13:30:02;6.70;;;2.58;;
41514;SDS011;27247;48.020;16.720;2023-07-29T13:34:12;6.32;;;2.00;;
41514;SDS011;27247;48.020;16.720;2023-07-29T13:38:24;5.50;;;2.60;;
41514;SDS011;27247;48.020;16.720;2023-07-29T13:42:34;4.57;;;2.78;;
41514;SDS011;27247;48.020;16.720;2023-07-29T13:46:45;10.50;;;2.72;;
41514;SDS011;27247;48.020;16.720;2023-07-29T13:50:55;3.60;;;2.00;;
41514;SDS011;27247;48.020;16.720;2023-07-29T13:55:06;4.97;;;2.42;;
41514;SDS011;27247;48.020;16.720;2023-07-29T13:59:16;4.93;;;1.98;;
41514;SDS011;27247;48.020;16.720;2023-07-29T14:03:27;2.83;;;2.28;;
41514;SDS011;27247;48.020;16.720;2023-07-29T14:07:37;2.92;;;2.63;;
41514;SDS011;27247;48.020;16.720;2023-07-29T14:11:48;3.33;;;2.05;;
41514;SDS011;27247;48.020;16.720;2023-07-29T14:16:01;2.90;;;2.00;;
41514;SDS011;27247;48.020;16.720;2023-07-29T14:20:13;2.15;;;1.95;;
41514;SDS011;27247;48.020;16.720;2023-07-29T14:24:23;4.22;;;2.40;;
41514;SDS011;27247;48.020;16.720;2023-07-29T14:28:34;2.28;;;2.08;;
41514;SDS011;27247;48.020;16.720;2023-07-29T14:32:44;2.83;;;1.90;;
41514;SDS011;27247;48.020;16.720;2023-07-29T14:36:55;4.00;;;2.20;;
41514;SDS011;27247;48.020;16.720;2023-07-29T14:41:05;2.93;;;2.13;;
41514;SDS011;27247;48.020;16.720;2023-07-29T14:45:16;2.70;;;2.13;;
41514;SDS011;27247;48.020;16.720;2023-07-29T14:49:26;2.67;;;2.00;;
41514;SDS011;27247;48.020;16.720;2023-07-29T14:53:36;2.97;;;2.30;;
41514;SDS011;27247;48.020;16.720;2023-07-29T14:57:47;2.40;;;2.10;;
41514;SDS011;27247;48.020;16.720;2023-07-29T15:01:57;2.73;;;1.90;;
41514;SDS011;27247;48.020;16.720;2023-07-29T15:06:07;2.37;;;1.83;;
41514;SDS011;27247;48.020;16.720;2023-07-29T15:10:18;3.90;;;2.40;;
41514;SDS011;27247;48.020;16.720;2023-07-29T15:14:28;1.60;;;1.48;;
41514;SDS011;27247;48.020;16.720;2023-07-29T15:18:39;1.85;;;1.70;;
41514;SDS011;27247;48.020;16.720;2023-07-29T15:22:49;3.23;;;1.67;;
41514;SDS011;27247;48.020;16.720;2023-07-29T15:26:59;3.00;;;2.10;;
41514;SDS011;27247;48.020;16.720;2023-07-29T15:31:10;4.80;;;1.87;;
41514;SDS011;27247;48.020;16.720;2023-07-29T15:35:23;2.88;;;1.73;;
41514;SDS011;27247;48.020;16.720;2023-07-29T15:39:33;3.03;;;2.00;;
41514;SDS011;27247;48.020;16.720;2023-07-29T15:43:43;3.85;;;1.70;;
41514;SDS011;27247;48.020;16.720;2023-07-29T15:47:54;2.63;;;2.17;;
41514;SDS011;27247;48.020;16.720;2023-07-29T15:52:04;2.77;;;1.63;;
41514;SDS011;27247;48.020;16.720;2023-07-29T15:56:14;3.47;;;1.58;;
41514;SDS011;27247;48.020;16.720;2023-07-29T16:00:25;1.93;;;1.60;;
41514;SDS011;27247;48.020;16.720;2023-07-29T16:04:35;1.70;;;1.60;;
41514;SDS011;27247;48.020;16.720;2023-07-29T16:08:45;2.13;;;1.60;;
41514;SDS011;27247;48.020;16.720;2023-07-29T16:12:56;1.77;;;1.43;;
41514;SDS011;27247;48.020;16.720;2023-07-29T16:17:06;3.13;;;1.98;;
41514;SDS011;27247;48.020;16.720;2023-07-29T16:21:16;2.73;;;1.37;;
41514;SDS011;27247;48.020;16.720;2023-07-29T16:25:27;1.95;;;1.70;;
41514;SDS011;27247;48.020;16.720;2023-07-29T16:29:38;1.55;;;1.45;;
41514;SDS011;27247;48.020;16.720;2023-07-29T16:33:48;2.30;;;1.55;;
41514;SDS011;27247;48.020;16.720;2023-07-29T16:38:00;1.30;;;1.20;;
41514;SDS011;27247;48.020;16.720;2023-07-29T16:42:10;1.95;;;1.45;;
41514;SDS011;27247;48.020;16.720;2023-07-29T16:46:21;1.50;;;1.40;;
41514;SDS011;27247;48.020;16.720;2023-07-29T16:50:31;3.65;;;1.27;;
41514;SDS011;27247;48.020;16.720;2023-07-29T16:54:42;1.63;;;1.50;;
41514;SDS011;27247;48.020;16.720;2023-07-29T16:58:52;2.33;;;1.50;;
41514;SDS011;27247;48.020;16.720;2023-07-29T17:03:02;2.78;;;1.70;;
41514;SDS011;27247;48.020;16.720;2023-07-29T17:07:13;1.63;;;1.50;;
41514;SDS011;27247;48.020;16.720;2023-07-29T17:11:25;2.17;;;1.50;;
41514;SDS011;27247;48.020;16.720;2023-07-29T17:15:36;1.50;;;1.40;;
41514;SDS011;27247;48.020;16.720;2023-07-29T17:19:46;1.83;;;1.60;;
41514;SDS011;27247;48.020;16.720;2023-07-29T17:23:57;2.15;;;1.60;;
41514;SDS011;27247;48.020;16.720;2023-07-29T17:28:08;3.25;;;1.90;;
41514;SDS011;27247;48.020;16.720;2023-07-29T17:32:19;1.73;;;1.60;;
41514;SDS011;27247;48.020;16.720;2023-07-29T17:36:29;5.30;;;2.25;;
41514;SDS011;27247;48.020;16.720;2023-07-29T17:40:40;2.60;;;1.60;;
41514;SDS011;27247;48.020;16.720;2023-07-29T17:44:51;1.92;;;1.63;;
41514;SDS011;27247;48.020;16.720;2023-07-29T17:49:01;2.78;;;2.00;;
41514;SDS011;27247;48.020;16.720;2023-07-29T17:53:12;2.58;;;2.03;;
41514;SDS011;27247;48.020;16.720;2023-07-29T17:57:22;4.90;;;2.05;;
41514;SDS011;27247;48.020;16.720;2023-07-29T18:01:33;3.20;;;1.67;;
41514;SDS011;27247;48.020;16.720;2023-07-29T18:05:43;3.27;;;1.70;;
41514;SDS011;27247;48.020;16.720;2023-07-29T18:09:53;4.97;;;1.90;;
41514;SDS011;27247;48.020;16.720;2023-07-29T18:14:04;7.28;;;2.58;;
41514;SDS011;27247;48.020;16.720;2023-07-29T18:18:14;7.90;;;3.77;;
41514;SDS011;27247;48.020;16.720;2023-07-29T18:22:24;4.53;;;2.67;;
41514;SDS011;27247;48.020;16.720;2023-07-29T18:26:35;4.47;;;2.67;;
41514;SDS011;27247;48.020;16.720;2023-07-29T18:30:47;4.18;;;2.10;;
41514;SDS011;27247;48.020;16.720;2023-07-29T18:34:59;5.20;;;2.10;;
41514;SDS011;27247;48.020;16.720;2023-07-29T18:39:10;3.13;;;2.20;;
41514;SDS011;27247;48.020;16.720;2023-07-29T18:43:20;4.03;;;2.30;;
41514;SDS011;27247;48.020;16.720;2023-07-29T18:47:31;5.80;;;2.35;;
41514;SDS011;27247;48.020;16.720;2023-07-29T18:51:42;2.85;;;2.30;;
41514;SDS011;27247;48.020;16.720;2023-07-29T18:55:53;2.97;;;2.50;;
41514;SDS011;27247;48.020;16.720;2023-07-29T19:00:04;3.47;;;2.50;;
41514;SDS011;27247;48.020;16.720;2023-07-29T19:04:15;3.97;;;2.70;;
41514;SDS011;27247;48.020;16.720;2023-07-29T19:08:26;4.68;;;2.90;;
41514;SDS011;27247;48.020;16.720;2023-07-29T19:12:37;4.53;;;2.55;;
41514;SDS011;27247;48.020;16.720;2023-07-29T19:16:48;4.35;;;2.53;;
41514;SDS011;27247;48.020;16.720;2023-07-29T19:20:59;2.75;;;2.35;;
41514;SDS011;27247;48.020;16.720;2023-07-29T19:25:10;2.40;;;2.10;;
41514;SDS011;27247;48.020;16.720;2023-07-29T19:29:21;2.10;;;1.80;;
41514;SDS011;27247;48.020;16.720;2023-07-29T19:33:32;1.92;;;1.73;;
41514;SDS011;27247;48.020;16.720;2023-07-29T19:37:43;3.13;;;2.20;;
41514;SDS011;27247;48.020;16.720;2023-07-29T19:41:54;3.07;;;2.33;;
41514;SDS011;27247;48.020;16.720;2023-07-29T19:46:05;3.65;;;2.40;;
41514;SDS011;27247;48.020;16.720;2023-07-29T19:50:17;5.75;;;2.10;;
41514;SDS011;27247;48.020;16.720;2023-07-29T19:54:28;2.17;;;1.80;;
41514;SDS011;27247;48.020;16.720;2023-07-29T19:58:38;2.38;;;1.90;;
41514;SDS011;27247;48.020;16.720;2023-07-29T20:02:49;2.95;;;1.60;;
41514;SDS011;27247;48.020;16.720;2023-07-29T20:07:00;6.40;;;3.40;;
41514;SDS011;27247;48.020;16.720;2023-07-29T20:11:10;3.95;;;2.88;;
41514;SDS011;27247;48.020;16.720;2023-07-29T20:15:21;4.47;;;2.20;;
41514;SDS011;27247;48.020;16.720;2023-07-29T20:19:32;2.85;;;2.20;;
41514;SDS011;27247;48.020;16.720;2023-07-29T20:23:44;3.65;;;2.22;;
41514;SDS011;27247;48.020;16.720;2023-07-29T20:27:55;3.40;;;2.30;;
41514;SDS011;27247;48.020;16.720;2023-07-29T20:32:06;3.60;;;2.30;;
41514;SDS011;27247;48.020;16.720;2023-07-29T20:36:16;3.28;;;2.03;;
41514;SDS011;27247;48.020;16.720;2023-07-29T20:40:27;4.65;;;2.30;;
41514;SDS011;27247;48.020;16.720;2023-07-29T20:44:38;5.25;;;2.28;;
41514;SDS011;27247;48.020;16.720;2023-07-29T20:48:49;4.15;;;2.70;;
41514;SDS011;27247;48.020;16.720;2023-07-29T20:53:00;7.55;;;2.70;;
41514;SDS011;27247;48.020;16.720;2023-07-29T20:57:10;5.50;;;2.00;;
41514;SDS011;27247;48.020;16.720;2023-07-29T21:01:21;2.28;;;1.65;;
41514;SDS011;27247;48.020;16.720;2023-07-29T21:05:35;5.77;;;1.70;;
41514;SDS011;27247;48.020;16.720;2023-07-29T21:09:45;6.78;;;2.35;;
41514;SDS011;27247;48.020;16.720;2023-07-29T21:13:55;3.50;;;2.00;;
41514;SDS011;27247;48.020;16.720;2023-07-29T21:18:06;4.40;;;2.00;;
41514;SDS011;27247;48.020;16.720;2023-07-29T21:22:16;4.67;;;2.30;;
41514;SDS011;27247;48.020;16.720;2023-07-29T21:26:26;3.87;;;2.20;;
41514;SDS011;27247;48.020;16.720;2023-07-29T21:30:37;3.50;;;2.10;;
41514;SDS011;27247;48.020;16.720;2023-07-29T21:34:47;2.80;;;2.00;;
41514;SDS011;27247;48.020;16.720;2023-07-29T21:38:57;6.80;;;2.47;;
41514;SDS011;27247;48.020;16.720;2023-07-29T21:43:08;3.33;;;2.20;;
41514;SDS011;27247;48.020;16.720;2023-07-29T21:47:18;5.80;;;2.17;;
41514;SDS011;27247;48.020;16.720;2023-07-29T21:51:28;5.87;;;1.87;;
41514;SDS011;27247;48.020;16.720;2023-07-29T21:55:39;3.27;;;2.30;;
41514;SDS011;27247;48.020;16.720;2023-07-29T21:59:51;4.05;;;2.58;;
41514;SDS011;27247;48.020;16.720;2023-07-29T22:04:01;4.80;;;2.50;;
41514;SDS011;27247;48.020;16.720;2023-07-29T22:08:11;3.77;;;2.03;;
41514;SDS011;27247;48.020;16.720;2023-07-29T22:12:22;3.27;;;2.47;;
41514;SDS011;27247;48.020;16.720;2023-07-29T22:16:32;4.77;;;2.53;;
41514;SDS011;27247;48.020;16.720;2023-07-29T22:20:51;4.10;;;2.17;;
41514;SDS011;27247;48.020;16.720;2023-07-29T22:25:02;4.55;;;2.60;;
41514;SDS011;27247;48.020;16.720;2023-07-29T22:29:12;4.75;;;2.30;;
41514;SDS011;27247;48.020;16.720;2023-07-29T22:33:24;4.65;;;2.20;;
41514;SDS011;27247;48.020;16.720;2023-07-29T22:37:34;3.08;;;2.10;;
41514;SDS011;27247;48.020;16.720;2023-07-29T22:41:45;5.15;;;2.55;;
41514;SDS011;27247;48.020;16.720;2023-07-29T22:45:56;3.70;;;2.17;;
41514;SDS011;27247;48.020;16.720;2023-07-29T22:50:07;5.50;;;2.17;;
41514;SDS011;27247;48.020;16.720;2023-07-29T22:54:18;5.10;;;2.38;;
41514;SDS011;27247;48.020;16.720;2023-07-29T22:58:29;2.80;;;2.10;;
41514;SDS011;27247;48.020;16.720;2023-07-29T23:02:39;6.57;;;2.78;;
41514;SDS011;27247;48.020;16.720;2023-07-29T23:06:49;2.73;;;2.50;;
41514;SDS011;27247;48.020;16.720;2023-07-29T23:11:00;3.97;;;2.53;;
41514;SDS011;27247;48.020;16.720;2023-07-29T23:15:12;4.82;;;2.35;;
41514;SDS011;27247;48.020;16.720;2023-07-29T23:19:22;2.67;;;2.10;;
41514;SDS011;27247;48.020;16.720;2023-07-29T23:23:33;8.80;;;2.37;;
41514;SDS011;27247;48.020;16.720;2023-07-29T23:27:43;2.50;;;2.30;;
41514;SDS011;27247;48.020;16.720;2023-07-29T23:31:53;3.10;;;2.40;;
41514;SDS011;27247;48.020;16.720;2023-07-29T23:36:06;3.80;;;2.30;;
41514;SDS011;27247;48.020;16.720;2023-07-29T23:40:16;6.03;;;2.40;;
41514;SDS011;27247;48.020;16.720;2023-07-29T23:44:26;3.53;;;2.17;;
41514;SDS011;27247;48.020;16.720;2023-07-29T23:48:37;4.07;;;2.20;;
41514;SDS011;27247;48.020;16.720;2023-07-29T23:52:47;3.33;;;2.58;;
41514;SDS011;27247;48.020;16.720;2023-07-29T23:56:57;4.00;;;2.97;;
